Time;durP1;ratioP1;P1;durP2;ratioP2;P2;SDS_P1;SDS_P2;PMS_P1;PMS_P2;Temp;Humidity;BMP_temperature;BMP_pressure;BME280_temperature;BME280_humidity;BME280_pressure;Samples;Min_cycle;Max_cycle;Signal;HPM_P1;HPM_P2
2021/03/01 00:00:31;;;;;;;;;;;;;;;1.67;93.71;99908.48;1708246;84;20173;-72
2021/03/01 00:02:59;;;;;;;;;;;;;;;1.66;93.57;99917.68;1673656;84;20234;-72
2021/03/01 00:05:27;;;;;;;;;;;;;;;1.63;93.44;99920.01;1712537;83;20240;-72
2021/03/01 00:07:54;;;;;;;;;;;;;;;1.64;93.23;99916.45;1692120;83;20238;-72
2021/03/01 00:10:23;;;;;;;;;;;;;;;1.67;93.37;99920.20;1686151;83;20163;-72
2021/03/01 00:12:50;;;;;;;;;;;;;;;1.66;93.14;99915.91;1683043;84;20150;-72
2021/03/01 00:15:20;;;;;;;;;;;;;;;1.65;93.39;99917.32;1682922;84;20244;-72
2021/03/01 00:17:47;;;;;;;;;;;;;;;1.60;92.93;99925.37;1656389;84;20152;-73
2021/03/01 00:20:16;;;;;;;;;;;;;;;1.59;93.25;99921.11;1693367;84;20148;-72
2021/03/01 00:22:44;;;;;;;;;;;;;;;1.57;93.07;99920.33;1705132;83;20167;-72
2021/03/01 00:25:13;;;;;;;;;;;;;;;1.54;93.14;99927.86;1665535;84;20184;-72
2021/03/01 00:27:40;;;;;;;;;;;;;;;1.56;93.25;99927.78;1677521;84;20420;-72
2021/03/01 00:30:09;;;;;;;;;;;;;;;1.61;92.87;99925.77;1706948;83;20231;-72
2021/03/01 00:32:37;;;;;;;;;;;;;;;1.61;92.77;99921.86;1683613;83;20151;-72
2021/03/01 00:35:07;;;;;;;;;;;;;;;1.57;93.08;99937.27;1700515;83;20236;-72
2021/03/01 00:37:34;;;;;;;;;;;;;;;1.55;92.86;99928.70;1710481;83;20141;-71
2021/03/01 00:40:04;;;;;;;;;;;;;;;1.50;93.20;99928.13;1665654;84;20199;-71
2021/03/01 00:42:33;;;;;;;;;;;;;;;1.48;93.47;99939.94;1689267;83;20172;-72
2021/03/01 00:45:03;;;;;;;;;;;;;;;1.47;93.16;99946.06;1669755;84;20278;-71
2021/03/01 00:47:30;;;;;;;;;;;;;;;1.42;92.79;99944.63;1690894;84;20167;-71
2021/03/01 00:49:58;;;;;;;;;;;;;;;1.42;93.06;99948.54;1691470;84;20446;-71
2021/03/01 00:52:25;;;;;;;;;;;;;;;1.42;92.98;99948.10;1673067;83;20238;-71
2021/03/01 00:54:53;;;;;;;;;;;;;;;1.40;93.06;99949.09;1711154;83;20133;-72
2021/03/01 00:57:20;;;;;;;;;;;;;;;1.38;93.52;99949.17;1708155;84;20147;-72
2021/03/01 00:59:48;;;;;;;;;;;;;;;1.35;93.54;99959.31;1717226;83;20149;-71
2021/03/01 01:02:16;;;;;;;;;;;;;;;1.34;93.83;99964.59;1700381;83;20250;-71
2021/03/01 01:04:51;;;;;;;;;;;;;;;1.34;94.21;99977.63;1699312;83;20482;-72
2021/03/01 01:07:19;;;;;;;;;;;;;;;1.32;93.95;99986.83;1716551;84;20244;-72
2021/03/01 01:09:46;;;;;;;;;;;;;;;1.30;93.65;100000.87;1700652;83;20436;-71
2021/03/01 01:12:14;;;;;;;;;;;;;;;1.29;94.00;100009.59;1708722;83;20136;-70
2021/03/01 01:14:42;;;;;;;;;;;;;;;1.31;94.38;100006.44;1687987;83;20207;-70
2021/03/01 01:17:09;;;;;;;;;;;;;;;1.32;94.56;100013.35;1708856;83;20128;-70
2021/03/01 01:19:36;;;;;;;;;;;;;;;1.33;94.74;100017.19;1654877;83;20438;-70
2021/03/01 01:22:04;;;;;;;;;;;;;;;1.35;94.38;100026.23;1666321;84;20242;-70
2021/03/01 01:24:31;;;;;;;;;;;;;;;1.32;94.14;100035.50;1674752;84;20283;-70
2021/03/01 01:26:59;;;;;;;;;;;;;;;1.29;94.35;100033.91;1675157;83;20143;-70
2021/03/01 01:29:26;;;;;;;;;;;;;;;1.26;94.18;100041.05;1717157;83;20128;-69
2021/03/01 01:31:53;;;;;;;;;;;;;;;1.27;94.25;100049.22;1680849;83;20148;-69
2021/03/01 01:34:21;;;;;;;;;;;;;;;1.29;94.57;100053.45;1684504;83;20237;-70
2021/03/01 01:36:48;;;;;;;;;;;;;;;1.34;94.59;100054.50;1686652;84;20486;-70
2021/03/01 01:39:16;;;;;;;;;;;;;;;1.34;94.33;100063.16;1708975;83;20141;-72
2021/03/01 01:41:43;;;;;;;;;;;;;;;1.32;94.23;100071.98;1716487;84;20422;-72
2021/03/01 01:44:10;;;;;;;;;;;;;;;1.30;94.05;100065.55;1708780;83;20151;-72
2021/03/01 01:46:38;;;;;;;;;;;;;;;1.23;94.07;100068.08;1716497;83;20152;-72
2021/03/01 01:49:06;;;;;;;;;;;;;;;1.24;94.42;100076.77;1678301;83;20151;-71
2021/03/01 01:51:33;;;;;;;;;;;;;;;1.30;94.37;100072.06;1674774;83;20173;-70
2021/03/01 01:54:01;;;;;;;;;;;;;;;1.36;94.08;100077.41;1701767;84;20155;-69
2021/03/01 01:56:28;;;;;;;;;;;;;;;1.39;93.72;100072.52;1696677;83;20415;-70
2021/03/01 01:58:55;;;;;;;;;;;;;;;1.36;93.75;100074.80;1696734;83;20231;-70
2021/03/01 02:01:23;;;;;;;;;;;;;;;1.33;93.85;100078.42;1691383;83;20155;-71
2021/03/01 02:04:03;;;;;;;;;;;;;;;1.33;93.61;100069.30;1699765;84;20207;-70
2021/03/01 02:06:39;;;;;;;;;;;;;;;1.32;93.74;100071.52;1700486;83;20242;-70
2021/03/01 02:09:10;;;;;;;;;;;;;;;1.32;93.68;100065.47;1714605;84;20149;-71
2021/03/01 02:11:59;;;;;;;;;;;;;;;1.37;93.66;100071.30;1691071;84;20501;-70
2021/03/01 02:14:46;;;;;;;;;;;;;;;1.43;93.69;100077.95;1709074;83;20144;-70
2021/03/01 02:17:13;;;;;;;;;;;;;;;1.45;93.05;100069.58;1700205;84;20151;-70
2021/03/01 02:19:41;;;;;;;;;;;;;;;1.44;92.59;100079.61;1709888;83;20164;-71
2021/03/01 02:22:09;;;;;;;;;;;;;;;1.39;92.78;100075.13;1699862;84;20237;-70
2021/03/01 02:24:38;;;;;;;;;;;;;;;1.36;92.82;100076.94;1680889;82;20158;-70
2021/03/01 02:27:06;;;;;;;;;;;;;;;1.34;92.75;100083.17;1679423;83;20144;-70
2021/03/01 02:29:33;;;;;;;;;;;;;;;1.30;92.84;100077.27;1717805;83;20153;-70
2021/03/01 02:32:01;;;;;;;;;;;;;;;1.30;92.88;100087.70;1654203;84;20245;-70
2021/03/01 02:34:32;;;;;;;;;;;;;;;1.33;93.54;100082.80;1683171;84;20147;-71
2021/03/01 02:37:01;;;;;;;;;;;;;;;1.34;93.58;100090.52;1700408;84;20268;-71
2021/03/01 02:39:30;;;;;;;;;;;;;;;1.35;93.81;100101.80;1716656;83;20148;-71
2021/03/01 02:41:57;;;;;;;;;;;;;;;1.35;93.44;100109.16;1699899;84;20159;-70
2021/03/01 02:44:24;;;;;;;;;;;;;;;1.33;93.33;100108.39;1708537;83;20243;-70
2021/03/01 02:46:52;;;;;;;;;;;;;;;1.30;93.50;100125.48;1712461;83;20438;-70
2021/03/01 02:49:20;;;;;;;;;;;;;;;1.27;93.72;100126.95;1700390;83;20145;-70
2021/03/01 02:51:49;;;;;;;;;;;;;;;1.28;93.69;100127.80;1666383;84;20317;-70
2021/03/01 02:54:17;;;;;;;;;;;;;;;1.32;93.60;100131.45;1691706;84;20228;-70
2021/03/01 02:56:46;;;;;;;;;;;;;;;1.30;93.54;100136.38;1692399;83;20157;-70
2021/03/01 02:59:14;;;;;;;;;;;;;;;1.27;93.99;100141.29;1694102;83;20171;-71
2021/03/01 03:01:41;;;;;;;;;;;;;;;1.28;94.25;100149.94;1695512;83;20242;-70
2021/03/01 03:04:08;;;;;;;;;;;;;;;1.27;94.32;100149.55;1703526;83;20143;-70
2021/03/01 03:06:37;;;;;;;;;;;;;;;1.27;94.31;100153.02;1688669;84;20168;-71
2021/03/01 03:09:07;;;;;;;;;;;;;;;1.26;94.32;100155.70;1708016;84;20283;-71
2021/03/01 03:11:34;;;;;;;;;;;;;;;1.26;93.96;100157.00;1657498;84;20215;-70
2021/03/01 03:14:02;;;;;;;;;;;;;;;1.28;93.97;100159.89;1684338;84;20562;-72
2021/03/01 03:16:30;;;;;;;;;;;;;;;1.32;93.95;100167.10;1716826;83;20144;-71
2021/03/01 03:18:57;;;;;;;;;;;;;;;1.32;93.60;100170.55;1708955;83;20246;-71
2021/03/01 03:21:25;;;;;;;;;;;;;;;1.30;93.37;100181.98;1693594;84;20168;-71
2021/03/01 03:23:54;;;;;;;;;;;;;;;1.29;93.50;100181.14;1708145;82;20180;-71
2021/03/01 03:26:22;;;;;;;;;;;;;;;1.27;93.30;100186.02;1692141;83;20178;-71
2021/03/01 03:28:49;;;;;;;;;;;;;;;1.22;93.55;100184.97;1709610;83;20233;-71
2021/03/01 03:31:17;;;;;;;;;;;;;;;1.21;93.76;100191.08;1692065;83;20164;-71
2021/03/01 03:33:44;;;;;;;;;;;;;;;1.27;93.54;100186.89;1674791;84;20143;-71
2021/03/01 03:36:12;;;;;;;;;;;;;;;1.34;93.25;100192.16;1701554;84;20172;-72
2021/03/01 03:38:47;;;;;;;;;;;;;;;1.33;92.76;100193.09;1697544;83;20153;-71
2021/03/01 03:41:15;;;;;;;;;;;;;;;1.29;92.69;100194.17;1707491;84;20491;-71
2021/03/01 03:43:43;;;;;;;;;;;;;;;1.26;92.45;100194.31;1716582;84;20128;-71
2021/03/01 03:46:11;;;;;;;;;;;;;;;1.20;92.66;100198.53;1669501;84;20159;-70
2021/03/01 03:48:41;;;;;;;;;;;;;;;1.18;92.83;100200.81;1701296;84;20168;-72
2021/03/01 03:51:10;;;;;;;;;;;;;;;1.16;93.17;100197.00;1696888;83;20446;-71
2021/03/01 03:53:41;;;;;;;;;;;;;;;1.22;93.08;100194.09;1679330;83;20157;-71
2021/03/01 03:56:08;;;;;;;;;;;;;;;1.26;93.04;100195.61;1674632;84;20147;-72
2021/03/01 03:58:45;;;;;;;;;;;;;;;1.26;92.77;100198.22;1699684;84;20263;-72
2021/03/01 04:01:16;;;;;;;;;;;;;;;1.26;92.93;100196.92;1685985;84;20239;-72
2021/03/01 04:03:44;;;;;;;;;;;;;;;1.27;92.75;100205.13;1694166;83;20148;-72
2021/03/01 04:06:11;;;;;;;;;;;;;;;1.26;92.59;100203.90;1714532;84;20164;-72
2021/03/01 04:08:39;;;;;;;;;;;;;;;1.27;92.85;100209.48;1684034;83;20471;-71
2021/03/01 04:11:06;;;;;;;;;;;;;;;1.29;92.97;100207.20;1667005;84;20438;-71
2021/03/01 04:13:33;;;;;;;;;;;;;;;1.35;92.22;100209.49;1684618;83;20128;-71
2021/03/01 04:16:01;;;;;;;;;;;;;;;1.41;92.06;100217.94;1690425;83;20151;-71
2021/03/01 04:18:30;;;;;;;;;;;;;;;1.43;92.36;100216.92;1710706;84;20420;-71
2021/03/01 04:21:00;;;;;;;;;;;;;;;1.44;91.96;100213.41;1708205;84;20419;-72
2021/03/01 04:23:27;;;;;;;;;;;;;;;1.44;91.79;100216.02;1657441;84;20164;-71
2021/03/01 04:25:54;;;;;;;;;;;;;;;1.41;91.27;100223.14;1714731;84;20231;-71
2021/03/01 04:28:22;;;;;;;;;;;;;;;1.37;91.25;100227.66;1709115;83;20156;-71
2021/03/01 04:30:49;;;;;;;;;;;;;;;1.35;91.68;100229.50;1669396;84;20242;-71
2021/03/01 04:33:17;;;;;;;;;;;;;;;1.35;91.48;100229.50;1674737;84;20262;-71
2021/03/01 04:35:45;;;;;;;;;;;;;;;1.37;91.07;100234.18;1655995;84;20234;-71
2021/03/01 04:38:13;;;;;;;;;;;;;;;1.36;91.36;100231.17;1659560;84;20175;-71
2021/03/01 04:40:42;;;;;;;;;;;;;;;1.36;91.99;100235.08;1716437;84;20189;-71
2021/03/01 04:43:10;;;;;;;;;;;;;;;1.38;92.06;100238.45;1699621;84;20152;-70
2021/03/01 04:45:38;;;;;;;;;;;;;;;1.40;91.60;100235.78;1692617;84;20250;-71
2021/03/01 04:48:08;;;;;;;;;;;;;;;1.40;91.29;100244.90;1701317;83;20133;-70
2021/03/01 04:50:36;;;;;;;;;;;;;;;1.41;91.09;100238.78;1696480;83;20171;-71
2021/03/01 04:53:05;;;;;;;;;;;;;;;1.38;90.78;100242.36;1703923;83;20247;-71
2021/03/01 04:55:34;;;;;;;;;;;;;;;1.37;90.73;100245.91;1665870;84;20151;-71
2021/03/01 04:58:01;;;;;;;;;;;;;;;1.39;90.69;100257.09;1692148;83;20249;-71
2021/03/01 05:00:28;;;;;;;;;;;;;;;1.40;90.86;100268.36;1682090;84;20243;-71
2021/03/01 05:02:56;;;;;;;;;;;;;;;1.41;91.12;100268.75;1715381;84;20232;-70
2021/03/01 05:05:24;;;;;;;;;;;;;;;1.39;91.01;100274.04;1674786;84;20187;-71
2021/03/01 05:07:51;;;;;;;;;;;;;;;1.38;91.00;100281.92;1689432;83;20231;-71
2021/03/01 05:10:19;;;;;;;;;;;;;;;1.34;91.16;100285.14;1716363;84;20173;-71
2021/03/01 05:12:46;;;;;;;;;;;;;;;1.30;91.11;100292.26;1716372;84;20149;-71
2021/03/01 05:15:14;;;;;;;;;;;;;;;1.27;91.05;100295.03;1716233;84;20177;-71
2021/03/01 05:17:42;;;;;;;;;;;;;;;1.28;91.59;100304.98;1697232;83;20151;-70
2021/03/01 05:20:10;;;;;;;;;;;;;;;1.35;91.42;100308.99;1709396;83;20140;-71
2021/03/01 05:22:38;;;;;;;;;;;;;;;1.39;91.31;100309.22;1710948;83;20222;-71
2021/03/01 05:25:07;;;;;;;;;;;;;;;1.43;90.76;100314.66;1708767;83;20416;-69
2021/03/01 05:27:35;;;;;;;;;;;;;;;1.46;90.29;100322.78;1691407;83;20204;-70
2021/03/01 05:30:07;;;;;;;;;;;;;;;1.46;89.81;100321.05;1691335;84;20302;-71
2021/03/01 05:32:35;;;;;;;;;;;;;;;1.47;89.29;100323.19;1705485;83;20247;-71
2021/03/01 05:35:05;;;;;;;;;;;;;;;1.47;89.01;100329.70;1694169;84;20192;-70
2021/03/01 05:37:32;;;;;;;;;;;;;;;1.49;89.20;100327.86;1666274;84;20179;-71
2021/03/01 05:40:01;;;;;;;;;;;;;;;1.54;88.83;100324.11;1683113;84;20147;-70
2021/03/01 05:42:29;;;;;;;;;;;;;;;1.59;88.73;100329.12;1694177;83;20156;-71
2021/03/01 05:44:56;;;;;;;;;;;;;;;1.62;89.03;100340.68;1672170;83;20147;-71
2021/03/01 05:47:24;;;;;;;;;;;;;;;1.63;89.18;100345.42;1711725;84;20244;-71
2021/03/01 05:49:51;;;;;;;;;;;;;;;1.65;88.91;100353.58;1708308;84;20171;-71
2021/03/01 05:52:20;;;;;;;;;;;;;;;1.66;89.06;100356.55;1708981;83;20142;-71
2021/03/01 05:54:48;;;;;;;;;;;;;;;1.69;88.49;100359.02;1716523;84;20234;-70
2021/03/01 05:57:15;;;;;;;;;;;;;;;1.69;88.04;100371.23;1717294;83;20141;-71
2021/03/01 05:59:47;;;;;;;;;;;;;;;1.71;87.80;100371.53;1683141;84;20204;-71
2021/03/01 06:02:16;;;;;;;;;;;;;;;1.72;87.33;100378.45;1691300;83;20196;-71
2021/03/01 06:04:43;;;;;;;;;;;;;;;1.76;87.30;100381.75;1670441;83;20234;-71
2021/03/01 06:07:11;;;;;;;;;;;;;;;1.77;87.66;100387.80;1713558;84;20268;-70
2021/03/01 06:09:39;;;;;;;;;;;;;;;1.75;87.55;100395.22;1708113;83;20175;-72
2021/03/01 06:12:07;;;;;;;;;;;;;;;1.71;87.89;100400.21;1685178;83;20231;-70
2021/03/01 06:14:35;;;;;;;;;;;;;;;1.69;88.30;100400.75;1675089;83;20184;-71
2021/03/01 06:17:14;;;;;;;;;;;;;;;1.70;88.04;100408.97;1691142;83;20160;-71
2021/03/01 06:19:48;;;;;;;;;;;;;;;1.70;88.36;100415.49;1698068;83;20182;-70
2021/03/01 06:22:16;;;;;;;;;;;;;;;1.72;88.21;100418.00;1716598;83;20144;-71
2021/03/01 06:25:06;;;;;;;;;;;;;;;1.75;88.19;100420.00;1674789;83;20479;-71
2021/03/01 06:27:58;;;;;;;;;;;;;;;1.78;88.45;100425.55;1692175;83;20178;-71
2021/03/01 06:30:34;;;;;;;;;;;;;;;1.79;88.65;100424.61;1708785;83;20145;-72
2021/03/01 06:33:09;;;;;;;;;;;;;;;1.80;88.50;100437.22;1716655;83;20537;-68
2021/03/01 06:35:52;;;;;;;;;;;;;;;1.78;88.27;100439.89;1692863;83;20169;-66
2021/03/01 06:38:28;;;;;;;;;;;;;;;1.74;88.33;100440.50;1716597;83;20149;-66
2021/03/01 06:41:17;;;;;;;;;;;;;;;1.70;88.39;100451.13;1659182;84;20159;-67
2021/03/01 06:43:57;;;;;;;;;;;;;;;1.70;88.69;100450.70;1703866;84;20148;-67
2021/03/01 06:46:29;;;;;;;;;;;;;;;1.77;88.62;100456.91;1717042;82;20144;-68
2021/03/01 06:49:12;;;;;;;;;;;;;;;1.82;88.68;100467.98;1703699;83;20250;-67
2021/03/01 06:51:39;;;;;;;;;;;;;;;1.86;88.61;100470.83;1691664;83;20424;-68
2021/03/01 06:54:09;;;;;;;;;;;;;;;1.90;88.09;100473.66;1717334;83;20145;-68
2021/03/01 06:56:40;;;;;;;;;;;;;;;1.88;87.65;100476.34;1679601;84;20135;-73
2021/03/01 06:59:16;;;;;;;;;;;;;;;1.89;87.77;100478.05;1692037;83;20143;-70
2021/03/01 07:01:46;;;;;;;;;;;;;;;1.91;87.23;100485.34;1684984;83;20243;-70
2021/03/01 07:04:23;;;;;;;;;;;;;;;1.94;86.85;100489.11;1717443;83;20148;-69
2021/03/01 07:06:51;;;;;;;;;;;;;;;2.00;86.58;100485.36;1691331;84;20219;-69
2021/03/01 07:09:23;;;;;;;;;;;;;;;2.04;86.54;100493.42;1691358;84;20143;-73
2021/03/01 07:11:51;;;;;;;;;;;;;;;2.07;86.48;100493.25;1699678;84;20180;-69
2021/03/01 07:14:24;;;;;;;;;;;;;;;2.10;86.17;100499.64;1687170;83;20185;-72
2021/03/01 07:16:55;;;;;;;;;;;;;;;2.11;85.92;100493.52;1695484;83;20538;-70
2021/03/01 07:19:29;;;;;;;;;;;;;;;2.10;85.88;100495.73;1687805;83;20156;-72
2021/03/01 07:21:58;;;;;;;;;;;;;;;2.10;85.66;100504.02;1680294;84;20218;-71
2021/03/01 07:24:27;;;;;;;;;;;;;;;2.07;85.64;100502.39;1685230;83;20135;-74
2021/03/01 07:26:58;;;;;;;;;;;;;;;2.08;86.06;100510.61;1716576;83;20145;-72
2021/03/01 07:29:32;;;;;;;;;;;;;;;2.14;86.30;100510.78;1708266;84;20239;-72
2021/03/01 07:32:10;;;;;;;;;;;;;;;2.22;85.78;100503.88;1708799;83;20234;-69
2021/03/01 07:34:37;;;;;;;;;;;;;;;2.27;85.45;100505.81;1677866;83;20177;-72
2021/03/01 07:37:05;;;;;;;;;;;;;;;2.35;85.37;100513.27;1674546;84;20439;-71
2021/03/01 07:39:33;;;;;;;;;;;;;;;2.41;84.76;100506.43;1697842;84;20185;-73
2021/03/01 07:42:04;;;;;;;;;;;;;;;2.45;84.57;100510.13;1688385;83;20419;-71
2021/03/01 07:44:49;;;;;;;;;;;;;;;2.51;84.17;100511.59;1716660;83;20144;-72
2021/03/01 07:47:26;;;;;;;;;;;;;;;2.55;84.05;100513.12;1681339;83;20418;-77
2021/03/01 07:49:54;;;;;;;;;;;;;;;2.63;83.46;100511.44;1708693;83;20148;-79
2021/03/01 07:52:29;;;;;;;;;;;;;;;2.67;82.99;100512.49;1713025;84;20446;-75
2021/03/01 07:55:10;;;;;;;;;;;;;;;2.70;82.64;100516.73;1706970;82;20215;-70
2021/03/01 07:57:40;;;;;;;;;;;;;;;2.71;82.35;100513.19;1702440;82;20199;-72
2021/03/01 08:00:29;;;;;;;;;;;;;;;2.74;81.75;100516.96;1676434;83;20212;-76
2021/03/01 08:02:58;;;;;;;;;;;;;;;2.74;81.42;100520.05;1703659;83;20299;-72
2021/03/01 08:05:31;;;;;;;;;;;;;;;2.76;81.76;100519.50;1698302;82;20311;-71
2021/03/01 08:07:58;;;;;;;;;;;;;;;2.85;81.58;100525.56;1704876;82;20166;-69
2021/03/01 08:10:32;;;;;;;;;;;;;;;2.91;81.06;100531.78;1707731;83;20167;-70
2021/03/01 08:13:02;;;;;;;;;;;;;;;2.96;80.76;100544.63;1704959;82;20959;-77
2021/03/01 08:15:44;;;;;;;;;;;;;;;3.02;80.70;100541.69;1712423;83;20175;-75
2021/03/01 08:18:13;;;;;;;;;;;;;;;3.08;80.48;100536.13;1712018;82;20160;-81
2021/03/01 08:20:43;;;;;;;;;;;;;;;3.11;79.78;100534.21;1704539;83;20207;-80
2021/03/01 08:23:14;;;;;;;;;;;;;;;3.11;79.26;100548.58;1707672;82;20250;-75
2021/03/01 08:25:51;;;;;;;;;;;;;;;3.09;79.24;100550.91;1711128;83;20132;-80
2021/03/01 08:28:28;;;;;;;;;;;;;;;3.08;78.88;100561.80;1704117;82;21285;-69
2021/03/01 08:30:56;;;;;;;;;;;;;;;3.07;78.55;100560.13;1714216;82;20580;-83
2021/03/01 08:33:25;;;;;;;;;;;;;;;3.02;78.38;100567.81;1714074;82;20307;-74
2021/03/01 08:35:54;;;;;;;;;;;;;;;3.02;78.43;100566.52;1727992;83;20175;-75
2021/03/01 08:38:46;;;;;;;;;;;;;;;3.02;78.45;100569.13;1695349;83;20291;-77
2021/03/01 08:41:15;;;;;;;;;;;;;;;3.03;78.77;100570.80;1715188;82;20240;-71
2021/03/01 08:43:43;;;;;;;;;;;;;;;3.05;79.38;100577.66;1710936;82;20198;-72
2021/03/01 08:46:17;;;;;;;;;;;;;;;3.05;79.32;100568.98;1710596;82;20144;-73
2021/03/01 08:48:46;;;;;;;;;;;;;;;3.08;79.16;100571.42;1701161;82;20271;-73
2021/03/01 08:51:14;;;;;;;;;;;;;;;3.10;79.45;100578.72;1697703;83;20251;-78
2021/03/01 08:53:41;;;;;;;;;;;;;;;3.16;79.99;100577.55;1714001;84;20268;-71
2021/03/01 08:56:26;;;;;;;;;;;;;;;3.25;79.55;100581.84;1711617;84;20291;-71
2021/03/01 08:58:54;;;;;;;;;;;;;;;3.35;79.40;100583.98;1702664;82;20478;-69
2021/03/01 09:01:22;;;;;;;;;;;;;;;3.48;79.75;100587.67;1708099;83;20944;-68
2021/03/01 09:03:50;;;;;;;;;;;;;;;3.60;79.06;100582.25;1705926;83;20288;-71
2021/03/01 09:06:21;;;;;;;;;;;;;;;3.73;78.12;100586.37;1702166;84;20466;-71
2021/03/01 09:08:53;;;;;;;;;;;;;;;3.85;77.74;100589.61;1704052;83;20209;-71
2021/03/01 09:11:23;;;;;;;;;;;;;;;3.96;77.10;100595.11;1702558;83;20710;-71
2021/03/01 09:13:52;;;;;;;;;;;;;;;4.04;76.68;100606.02;1705168;83;20146;-72
2021/03/01 09:16:23;;;;;;;;;;;;;;;4.09;75.63;100596.59;1700609;83;20266;-74
2021/03/01 09:18:52;;;;;;;;;;;;;;;4.09;75.09;100597.43;1699328;83;20136;-74
2021/03/01 09:21:20;;;;;;;;;;;;;;;4.09;74.74;100611.83;1700389;83;20199;-76
2021/03/01 09:23:50;;;;;;;;;;;;;;;4.14;74.90;100607.66;1701813;83;20200;-69
2021/03/01 09:26:24;;;;;;;;;;;;;;;4.15;74.72;100607.20;1702984;84;20280;-69
2021/03/01 09:28:58;;;;;;;;;;;;;;;4.15;73.93;100613.73;1703467;84;20267;-69
2021/03/01 09:31:57;;;;;;;;;;;;;;;4.19;73.36;100613.94;1833726;77;20254;-70
2021/03/01 09:34:26;;;;;;;;;;;;;;;4.11;73.39;100622.22;1778937;78;20200;-67
2021/03/01 09:36:55;;;;;;;;;;;;;;;4.14;72.87;100622.54;1819020;78;20223;-74
2021/03/01 09:39:27;;;;;;;;;;;;;;;4.12;72.79;100625.70;1812283;78;20566;-70
2021/03/01 09:41:55;;;;;;;;;;;;;;;4.17;72.88;100632.38;1809465;78;20315;-73
2021/03/01 09:44:25;;;;;;;;;;;;;;;4.27;72.99;100629.63;1814999;78;20295;-72
2021/03/01 09:46:54;;;;;;;;;;;;;;;4.38;72.51;100640.82;1810703;78;20129;-75
2021/03/01 09:49:21;;;;;;;;;;;;;;;4.59;72.14;100638.77;1831074;78;20557;-76
2021/03/01 09:51:50;;;;;;;;;;;;;;;4.96;72.06;100635.37;1824218;78;20291;-75
2021/03/01 09:54:17;;;;;;;;;;;;;;;5.48;71.25;100637.15;1781341;78;20208;-71
2021/03/01 09:56:46;;;;;;;;;;;;;;;5.91;68.77;100631.47;1813003;78;20248;-74
2021/03/01 09:59:34;;;;;;;;;;;;;;;6.21;67.18;100633.14;1803845;78;20153;-72
2021/03/01 10:02:15;;;;;;;;;;;;;;;6.37;65.92;100629.89;1827830;78;20283;-73
2021/03/01 10:04:44;;;;;;;;;;;;;;;6.46;64.54;100632.41;1802000;78;20141;-71
2021/03/01 10:07:24;;;;;;;;;;;;;;;6.45;63.98;100622.00;1806860;78;20527;-71
2021/03/01 10:09:54;;;;;;;;;;;;;;;6.45;63.78;100628.56;1820336;78;20137;-75
2021/03/01 10:12:22;;;;;;;;;;;;;;;6.40;64.00;100623.14;1806564;78;20196;-68
2021/03/01 10:14:58;;;;;;;;;;;;;;;6.41;63.42;100618.72;1817957;78;20212;-70
2021/03/01 10:17:31;;;;;;;;;;;;;;;6.45;63.52;100627.25;1828192;78;20235;-70
2021/03/01 10:20:09;;;;;;;;;;;;;;;6.49;62.15;100620.84;1825964;78;20554;-66
2021/03/01 10:22:58;;;;;;;;;;;;;;;6.57;61.87;100619.91;1821453;78;20451;-68
2021/03/01 10:25:36;;;;;;;;;;;;;;;6.76;61.16;100621.69;1796172;80;20163;-69
2021/03/01 10:28:08;;;;;;;;;;;;;;;6.98;60.97;100625.55;1798577;80;20735;-69
2021/03/01 10:30:35;;;;;;;;;;;;;;;7.13;60.16;100622.37;1763874;80;20191;-71
2021/03/01 10:33:07;;;;;;;;;;;;;;;7.25;59.52;100618.89;1774136;80;20151;-73
2021/03/01 10:35:35;;;;;;;;;;;;;;;7.26;59.32;100610.55;1782599;80;20189;-71
2021/03/01 10:38:07;;;;;;;;;;;;;;;7.24;59.19;100608.47;1747886;80;20341;-75
2021/03/01 10:40:36;;;;;;;;;;;;;;;7.21;58.68;100610.01;1747702;80;20212;-65
2021/03/01 10:43:09;;;;;;;;;;;;;;;7.21;59.13;100604.75;1795446;80;20209;-68
2021/03/01 10:45:41;;;;;;;;;;;;;;;7.24;58.97;100604.52;1769812;80;20489;-65
2021/03/01 10:48:09;;;;;;;;;;;;;;;7.29;58.56;100611.16;1764854;80;20195;-69
2021/03/01 10:50:37;;;;;;;;;;;;;;;7.27;58.48;100609.10;1775052;80;20654;-69
2021/03/01 10:53:07;;;;;;;;;;;;;;;7.23;58.80;100618.64;1797596;80;20190;-66
2021/03/01 10:55:35;;;;;;;;;;;;;;;7.24;58.21;100625.12;1738994;81;20235;-66
2021/03/01 10:58:03;;;;;;;;;;;;;;;7.18;58.67;100622.88;1757042;81;20486;-70
2021/03/01 11:00:33;;;;;;;;;;;;;;;7.15;58.63;100629.68;1751683;81;20195;-70
2021/03/01 11:03:01;;;;;;;;;;;;;;;7.16;58.58;100628.27;1744966;81;20340;-71
2021/03/01 11:05:29;;;;;;;;;;;;;;;7.15;58.24;100627.05;1757056;81;20307;-70
2021/03/01 11:07:58;;;;;;;;;;;;;;;7.22;58.76;100626.14;1762694;81;20177;-71
2021/03/01 11:10:28;;;;;;;;;;;;;;;7.29;58.04;100630.89;1763232;81;20606;-70
2021/03/01 11:12:58;;;;;;;;;;;;;;;7.34;58.17;100627.96;1755413;81;20183;-72
2021/03/01 11:15:26;;;;;;;;;;;;;;;7.35;58.32;100636.20;1734032;81;20152;-68
2021/03/01 11:17:53;;;;;;;;;;;;;;;7.29;57.90;100634.00;1725120;81;20141;-71
2021/03/01 11:20:21;;;;;;;;;;;;;;;7.18;57.64;100627.69;1734284;81;20211;-67
2021/03/01 11:22:48;;;;;;;;;;;;;;;7.03;58.06;100626.06;1745581;81;20141;-70
2021/03/01 11:25:16;;;;;;;;;;;;;;;6.89;58.53;100624.36;1758284;80;20207;-69
2021/03/01 11:27:43;;;;;;;;;;;;;;;6.83;58.61;100624.77;1728669;80;20139;-75
2021/03/01 11:30:12;;;;;;;;;;;;;;;6.79;58.87;100629.87;1796951;80;20202;-77
2021/03/01 11:32:40;;;;;;;;;;;;;;;6.75;58.77;100629.22;1793354;80;20304;-73
2021/03/01 11:35:10;;;;;;;;;;;;;;;6.72;58.68;100625.95;1764862;80;20305;-70
2021/03/01 11:37:37;;;;;;;;;;;;;;;6.62;59.14;100628.31;1783320;80;20154;-72
2021/03/01 11:40:06;;;;;;;;;;;;;;;6.53;59.55;100626.31;1774974;80;20183;-73
2021/03/01 11:42:34;;;;;;;;;;;;;;;6.48;59.71;100620.50;1785138;80;20174;-75
2021/03/01 11:45:03;;;;;;;;;;;;;;;6.45;59.65;100632.03;1784228;80;20300;-72
2021/03/01 11:47:31;;;;;;;;;;;;;;;6.43;60.04;100630.45;1764519;80;20178;-73
2021/03/01 11:49:59;;;;;;;;;;;;;;;6.38;60.16;100627.66;1771864;80;20202;-67
2021/03/01 11:52:26;;;;;;;;;;;;;;;6.35;60.07;100629.15;1752514;80;20160;-74
2021/03/01 11:54:55;;;;;;;;;;;;;;;6.30;60.36;100635.64;1787890;80;20191;-69
2021/03/01 11:57:27;;;;;;;;;;;;;;;6.21;60.82;100632.67;1781856;80;20293;-72
2021/03/01 11:59:54;;;;;;;;;;;;;;;6.10;61.06;100627.25;1775486;80;20285;-72
2021/03/01 12:02:22;;;;;;;;;;;;;;;6.07;60.82;100620.03;1784592;80;20222;-71
2021/03/01 12:04:49;;;;;;;;;;;;;;;6.01;61.24;100624.72;1780158;80;20227;-70
2021/03/01 12:07:16;;;;;;;;;;;;;;;5.99;61.25;100629.22;1790511;80;20159;-71
2021/03/01 12:09:44;;;;;;;;;;;;;;;5.96;61.23;100628.09;1757582;80;20194;-74
2021/03/01 12:12:12;;;;;;;;;;;;;;;5.89;61.30;100629.85;1787778;80;20123;-75
2021/03/01 12:14:39;;;;;;;;;;;;;;;5.81;61.33;100630.33;1787697;80;20159;-75
2021/03/01 12:17:07;;;;;;;;;;;;;;;5.72;61.60;100630.41;1786745;80;20242;-77
2021/03/01 12:19:37;;;;;;;;;;;;;;;5.65;61.75;100633.06;1800164;80;20186;-76
2021/03/01 12:22:04;;;;;;;;;;;;;;;5.54;62.00;100635.49;1749931;80;20180;-77
2021/03/01 12:24:32;;;;;;;;;;;;;;;5.38;62.63;100639.48;1795589;80;20260;-78
2021/03/01 12:27:00;;;;;;;;;;;;;;;5.27;63.32;100648.46;1786409;80;20123;-75
2021/03/01 12:29:27;;;;;;;;;;;;;;;5.14;64.24;100643.92;1784143;80;20135;-79
2021/03/01 12:31:54;;;;;;;;;;;;;;;5.00;64.69;100652.60;1776410;80;20147;-77
2021/03/01 12:34:22;;;;;;;;;;;;;;;4.86;65.73;100659.96;1767030;80;20498;-78
2021/03/01 12:36:49;;;;;;;;;;;;;;;4.70;67.05;100661.76;1771287;80;20143;-77
2021/03/01 12:39:19;;;;;;;;;;;;;;;4.57;68.09;100660.28;1772020;80;20158;-80
2021/03/01 12:41:46;;;;;;;;;;;;;;;4.40;69.21;100661.70;1771701;80;20226;-78
2021/03/01 12:44:14;;;;;;;;;;;;;;;4.22;70.19;100654.37;1787712;80;20194;-75
2021/03/01 12:46:41;;;;;;;;;;;;;;;4.04;71.39;100659.69;1798525;80;20127;-76
2021/03/01 12:49:09;;;;;;;;;;;;;;;3.94;72.38;100662.40;1786778;80;20250;-77
2021/03/01 12:51:37;;;;;;;;;;;;;;;3.92;73.14;100662.11;1784802;80;20163;-78
2021/03/01 12:54:04;;;;;;;;;;;;;;;3.89;73.46;100666.58;1777677;80;20159;-79
2021/03/01 12:56:32;;;;;;;;;;;;;;;3.85;73.87;100666.81;1744234;80;20155;-78
2021/03/01 12:59:00;;;;;;;;;;;;;;;3.75;73.95;100672.99;1754788;80;20568;-76
2021/03/01 13:01:28;;;;;;;;;;;;;;;3.69;74.57;100678.09;1800219;80;20131;-77